createdAt,value
2024-02-24T00:00:29.577Z,97627.30
2024-02-24T00:03:19.376Z,97631.46
2024-02-24T00:05:48.566Z,97626.95
2024-02-24T00:08:17.138Z,97629.52
2024-02-24T00:10:47.149Z,97630.41
2024-02-24T00:13:16.042Z,97631.58
2024-02-24T00:15:44.722Z,97628.24
2024-02-24T00:18:13.669Z,97627.16
2024-02-24T00:20:42.458Z,97623.00
2024-02-24T00:23:11.208Z,97619.10
2024-02-24T00:25:39.716Z,97616.45
2024-02-24T00:28:09.993Z,97614.65
2024-02-24T00:30:38.441Z,97617.86
2024-02-24T00:33:07.037Z,97620.14
2024-02-24T00:35:39.605Z,97621.25
2024-02-24T00:38:08.159Z,97619.83
2024-02-24T00:40:36.854Z,97619.20
2024-02-24T00:43:05.603Z,97615.52
2024-02-24T00:45:34.050Z,97613.61
2024-02-24T00:48:03.724Z,97619.66
2024-02-24T00:50:32.613Z,97621.35
2024-02-24T00:53:01.219Z,97618.55
2024-02-24T00:55:29.834Z,97619.21
2024-02-24T00:57:58.220Z,97618.17
2024-02-24T01:00:26.750Z,97620.95
2024-02-24T01:02:55.626Z,97621.81
2024-02-24T01:05:25.221Z,97622.02
2024-02-24T01:07:56.774Z,97617.44
2024-02-24T01:10:26.028Z,97615.86
2024-02-24T01:12:54.744Z,97621.60
2024-02-24T01:15:25.011Z,97628.17
2024-02-24T01:17:57.250Z,97624.47
2024-02-24T01:20:29.724Z,97623.20
2024-02-24T01:23:00.640Z,97620.27
2024-02-24T01:25:29.124Z,97620.08
2024-02-24T01:27:57.697Z,97620.60
2024-02-24T01:30:27.114Z,97626.80
2024-02-24T01:32:55.811Z,97624.91
2024-02-24T01:35:24.947Z,97624.55
2024-02-24T01:37:53.664Z,97621.42
2024-02-24T01:40:22.141Z,97618.15
2024-02-24T01:42:50.772Z,97614.36
2024-02-24T01:45:19.446Z,97616.29
2024-02-24T01:47:51.205Z,97617.55
2024-02-24T01:50:21.788Z,97618.01
2024-02-24T01:52:51.056Z,97619.43
2024-02-24T01:55:20.489Z,97624.23
2024-02-24T01:57:52.433Z,97628.73
2024-02-24T02:00:22.053Z,97625.15
2024-02-24T02:02:51.211Z,97623.92
2024-02-24T02:05:20.334Z,97628.33
2024-02-24T02:07:48.914Z,97629.00
2024-02-24T02:10:17.537Z,97636.80
2024-02-24T02:12:48.182Z,97638.17
2024-02-24T02:15:17.117Z,97641.67
2024-02-24T02:17:45.849Z,97649.14
2024-02-24T02:20:15.222Z,97645.33
2024-02-24T02:22:42.955Z,97640.95
2024-02-24T02:25:11.658Z,97642.33
2024-02-24T02:27:40.236Z,97640.19
2024-02-24T02:30:11.758Z,97638.77
2024-02-24T02:32:41.200Z,97636.80
2024-02-24T02:35:11.563Z,97632.16
2024-02-24T02:37:41.321Z,97636.17
2024-02-24T02:40:11.527Z,97635.44
2024-02-24T02:42:40.278Z,97632.67
2024-02-24T02:45:10.101Z,97634.40
2024-02-24T02:47:39.004Z,97632.54
2024-02-24T02:50:09.560Z,97641.16
2024-02-24T02:52:38.352Z,97646.35
2024-02-24T02:55:08.379Z,97646.66
2024-02-24T02:57:37.277Z,97646.80
2024-02-24T03:00:08.846Z,97649.02
2024-02-24T03:02:37.544Z,97648.95
2024-02-24T03:05:08.353Z,97653.96
2024-02-24T03:07:36.976Z,97653.61
2024-02-24T03:10:08.603Z,97660.41
2024-02-24T03:12:37.516Z,97665.05
2024-02-24T03:15:08.623Z,97669.40
2024-02-24T03:17:37.246Z,97673.08
2024-02-24T03:20:12.142Z,97672.72
2024-02-24T03:22:42.214Z,97667.57
2024-02-24T03:25:11.047Z,97673.50
2024-02-24T03:27:40.060Z,97674.42
2024-02-24T03:30:11.362Z,97673.21
2024-02-24T03:32:40.619Z,97670.70
2024-02-24T03:35:09.566Z,97676.89
2024-02-24T03:37:38.170Z,97684.16
2024-02-24T03:40:08.853Z,97683.86
2024-02-24T03:42:37.427Z,97681.36
2024-02-24T03:45:09.342Z,97678.41
2024-02-24T03:47:38.277Z,97682.02
2024-02-24T03:50:09.807Z,97678.46
2024-02-24T03:52:40.242Z,97678.63
2024-02-24T03:55:10.093Z,97683.02
2024-02-24T03:57:38.853Z,97677.10
2024-02-24T04:00:10.626Z,97679.98
2024-02-24T04:02:42.795Z,97680.27
2024-02-24T04:05:11.994Z,97678.95
2024-02-24T04:07:40.529Z,97684.15
2024-02-24T04:10:10.045Z,97693.27
2024-02-24T04:12:38.660Z,97693.53
2024-02-24T04:15:08.835Z,97692.70
2024-02-24T04:17:38.021Z,97693.09
2024-02-24T04:20:09.484Z,97695.05
2024-02-24T04:22:39.116Z,97702.16
2024-02-24T04:25:09.937Z,97702.36
2024-02-24T04:27:38.787Z,97707.41
2024-02-24T04:30:09.596Z,97702.17
2024-02-24T04:32:38.613Z,97703.55
2024-02-24T04:35:08.821Z,97703.02
2024-02-24T04:37:37.546Z,97702.83
2024-02-24T04:40:08.876Z,97700.77
2024-02-24T04:42:38.592Z,97699.23
2024-02-24T04:45:09.502Z,97701.40
2024-02-24T04:47:38.276Z,97699.55
2024-02-24T04:50:09.564Z,97702.88
2024-02-24T04:52:38.406Z,97706.90
2024-02-24T04:55:09.459Z,97705.84
2024-02-24T04:57:38.073Z,97710.20
2024-02-24T05:00:09.218Z,97714.89
2024-02-24T05:02:38.247Z,97716.13
2024-02-24T05:05:10.308Z,97716.80
2024-02-24T05:07:39.068Z,97718.59
2024-02-24T05:10:10.090Z,97716.50
2024-02-24T05:12:38.748Z,97709.33
2024-02-24T05:15:09.663Z,97704.08
2024-02-24T05:17:38.453Z,97703.56
2024-02-24T05:20:09.208Z,97708.28
2024-02-24T05:22:37.879Z,97710.89
2024-02-24T05:25:09.570Z,97717.14
2024-02-24T05:27:38.509Z,97718.17
2024-02-24T05:30:09.187Z,97722.02
2024-02-24T05:32:37.816Z,97722.84
2024-02-24T05:35:07.887Z,97723.54
2024-02-24T05:37:36.729Z,97731.02
2024-02-24T05:40:07.822Z,97730.33
2024-02-24T05:42:36.338Z,97736.21
2024-02-24T05:45:06.467Z,97734.85
2024-02-24T05:47:35.265Z,97731.70
2024-02-24T05:50:05.404Z,97734.06
2024-02-24T05:52:33.969Z,97734.54
2024-02-24T05:55:03.088Z,97738.55
2024-02-24T05:57:31.559Z,97739.19
2024-02-24T06:00:00.626Z,97746.72
2024-02-24T06:02:29.414Z,97746.34
2024-02-24T06:04:58.383Z,97747.55
2024-02-24T06:07:27.036Z,97755.08
2024-02-24T06:09:55.703Z,97762.67
2024-02-24T06:12:24.265Z,97764.74
2024-02-24T06:14:52.953Z,97759.98
2024-02-24T06:17:21.593Z,97760.36
2024-02-24T06:19:50.110Z,97767.10
2024-02-24T06:22:18.743Z,97765.76
2024-02-24T06:24:47.281Z,97767.23
2024-02-24T06:27:16.565Z,97775.80
2024-02-24T06:29:44.585Z,97781.74
2024-02-24T06:32:13.373Z,97784.93
2024-02-24T06:34:45.344Z,97786.08
2024-02-24T06:37:14.037Z,97791.50
2024-02-24T06:39:43.005Z,97787.84
2024-02-24T06:42:12.368Z,97790.84
2024-02-24T06:44:41.045Z,97797.66
2024-02-24T06:47:17.837Z,97800.01
2024-02-24T06:49:53.738Z,97803.94
2024-02-24T06:52:22.562Z,97803.58
2024-02-24T06:54:52.372Z,97808.04
2024-02-24T06:57:21.172Z,97815.09
2024-02-24T06:59:49.902Z,97824.15
2024-02-24T07:02:18.674Z,97830.86
2024-02-24T07:04:47.552Z,97835.80
2024-02-24T07:07:16.369Z,97843.05
2024-02-24T07:09:45.335Z,97847.52
2024-02-24T07:12:14.367Z,97850.30
2024-02-24T07:14:43.243Z,97846.25
2024-02-24T07:17:12.109Z,97845.23
2024-02-24T07:19:40.876Z,97848.31
2024-02-24T07:22:09.653Z,97847.48
2024-02-24T07:24:39.407Z,97851.63
2024-02-24T07:27:11.336Z,97862.30
2024-02-24T07:29:40.421Z,97865.27
2024-02-24T07:32:09.271Z,97864.42
2024-02-24T07:34:38.639Z,97871.23
2024-02-24T07:37:07.723Z,97877.53
2024-02-24T07:39:36.820Z,97881.55
2024-02-24T07:42:06.674Z,97883.81
2024-02-24T07:44:35.165Z,97889.38
2024-02-24T07:47:04.106Z,97886.09
2024-02-24T07:49:32.778Z,97886.29
2024-02-24T07:52:01.629Z,97891.73
2024-02-24T07:54:30.611Z,97899.21
2024-02-24T07:56:59.295Z,97904.27
2024-02-24T07:59:27.973Z,97904.46
2024-02-24T08:01:56.734Z,97898.66
2024-02-24T08:04:26.085Z,97901.27
2024-02-24T08:06:54.990Z,97903.89
2024-02-24T08:09:23.760Z,97900.20
2024-02-24T08:11:52.844Z,97905.59
2024-02-24T08:14:21.350Z,97905.02
2024-02-24T08:16:49.966Z,97904.67
2024-02-24T08:19:19.030Z,97904.67
2024-02-24T08:21:46.690Z,97907.97
2024-02-24T08:24:16.952Z,97909.38
2024-02-24T08:26:46.006Z,97911.98
2024-02-24T08:29:13.803Z,97909.51
2024-02-24T08:31:43.186Z,97916.52
2024-02-24T08:34:12.198Z,97913.06
2024-02-24T08:36:41.133Z,97914.11
2024-02-24T08:39:09.964Z,97916.56
2024-02-24T08:41:38.986Z,97910.61
2024-02-24T08:44:08.048Z,97916.93
2024-02-24T08:46:36.567Z,97920.14
2024-02-24T08:49:05.138Z,97915.52
2024-02-24T08:51:33.622Z,97917.25
2024-02-24T08:54:02.076Z,97918.81
2024-02-24T08:56:31.017Z,97920.92
2024-02-24T08:58:58.917Z,97925.80
2024-02-24T09:01:27.993Z,97928.91
2024-02-24T09:03:57.311Z,97931.69
2024-02-24T09:06:24.988Z,97927.29
2024-02-24T09:08:53.581Z,97930.61
2024-02-24T09:11:22.281Z,97926.05
2024-02-24T09:13:50.932Z,97934.43
2024-02-24T09:16:19.485Z,97934.09
2024-02-24T09:18:48.342Z,97940.03
2024-02-24T09:21:16.811Z,97942.31
2024-02-24T09:23:45.617Z,97946.17
2024-02-24T09:26:15.855Z,97946.33
2024-02-24T09:28:44.790Z,97949.29
2024-02-24T09:31:13.413Z,97948.93
2024-02-24T09:33:42.260Z,97952.06
2024-02-24T09:36:10.879Z,97949.42
2024-02-24T09:38:39.651Z,97954.65
2024-02-24T09:41:11.280Z,97958.19
2024-02-24T09:43:40.829Z,97960.77
2024-02-24T09:46:09.495Z,97964.64
2024-02-24T09:48:39.857Z,97972.34
2024-02-24T09:51:08.602Z,97982.15
2024-02-24T09:53:38.148Z,97985.47
2024-02-24T09:56:10.523Z,97986.52
2024-02-24T09:58:39.845Z,97983.52
2024-02-24T10:01:09.688Z,97987.52
2024-02-24T10:03:41.493Z,98002.55
2024-02-24T10:06:11.888Z,98001.52
2024-02-24T10:08:41.422Z,98007.31
2024-02-24T10:11:14.060Z,98016.05
2024-02-24T10:13:45.342Z,98010.39
2024-02-24T10:16:16.614Z,98019.52
2024-02-24T10:18:45.313Z,98026.73
2024-02-24T10:21:15.327Z,98031.14
2024-02-24T10:23:44.041Z,98030.64
2024-02-24T10:26:12.720Z,98039.20
2024-02-24T10:28:42.625Z,98037.59
2024-02-24T10:31:12.187Z,98043.18
2024-02-24T10:33:41.968Z,98046.88
2024-02-24T10:36:12.003Z,98050.75
2024-02-24T10:38:45.403Z,98051.11
2024-02-24T10:41:22.884Z,98051.11
2024-02-24T10:44:02.421Z,98057.92
2024-02-24T10:46:40.997Z,98057.39
2024-02-24T10:49:10.598Z,98058.62
2024-02-24T10:51:39.613Z,98061.25
2024-02-24T10:54:13.211Z,98065.09
2024-02-24T10:56:42.229Z,98066.33
2024-02-24T10:59:11.903Z,98069.99
2024-02-24T11:01:46.845Z,98060.37
2024-02-24T11:04:17.458Z,98061.52
2024-02-24T11:06:49.204Z,98056.67
2024-02-24T11:09:27.448Z,98055.65
2024-02-24T11:12:04.895Z,98048.28
2024-02-24T11:14:35.641Z,98050.98
2024-02-24T11:17:05.361Z,98059.11
2024-02-24T11:19:45.622Z,98063.84
2024-02-24T11:22:22.060Z,98073.45
2024-02-24T11:25:01.889Z,98060.20
2024-02-24T11:27:31.646Z,98057.95
2024-02-24T11:30:20.391Z,98057.33
2024-02-24T11:32:52.136Z,98053.58
2024-02-24T11:35:22.138Z,98056.04
2024-02-24T11:37:51.026Z,98053.38
2024-02-24T11:40:19.814Z,98047.96
2024-02-24T11:42:49.828Z,98046.29
2024-02-24T11:45:18.488Z,98043.67
2024-02-24T11:47:48.387Z,98045.89
2024-02-24T11:50:18.709Z,98055.81
2024-02-24T11:52:48.409Z,98065.21
2024-02-24T11:55:16.905Z,98069.29
2024-02-24T11:57:45.954Z,98078.95
2024-02-24T12:00:16.649Z,98086.18
2024-02-24T12:02:45.190Z,98091.80
2024-02-24T12:05:14.339Z,98092.98
2024-02-24T12:07:44.077Z,98096.84
2024-02-24T12:10:13.356Z,98095.95
2024-02-24T12:12:42.529Z,98097.15
2024-02-24T12:15:15.431Z,98098.41
2024-02-24T12:17:45.796Z,98107.87
2024-02-24T12:20:15.020Z,98109.28
2024-02-24T12:22:45.050Z,98108.11
2024-02-24T12:25:14.643Z,98111.11
2024-02-24T12:27:43.720Z,98109.67
2024-02-24T12:30:14.214Z,98102.70
2024-02-24T12:32:44.620Z,98106.11
2024-02-24T12:35:14.255Z,98104.98
2024-02-24T12:37:44.744Z,98104.86
2024-02-24T12:40:30.304Z,98110.11
2024-02-24T12:43:00.334Z,98101.35
2024-02-24T12:45:29.341Z,98104.09
2024-02-24T12:47:57.475Z,98099.77
2024-02-24T12:50:28.599Z,98109.39
2024-02-24T12:52:58.181Z,98109.29
2024-02-24T12:55:27.387Z,98100.43
2024-02-24T12:57:56.137Z,98107.27
2024-02-24T13:00:25.016Z,98112.04
2024-02-24T13:02:56.565Z,98109.42
2024-02-24T13:05:25.434Z,98107.42
2024-02-24T13:07:54.474Z,98103.55
2024-02-24T13:10:23.453Z,98111.42
2024-02-24T13:12:52.511Z,98112.55
2024-02-24T13:15:21.124Z,98115.47
2024-02-24T13:17:49.751Z,98119.36
2024-02-24T13:20:18.433Z,98124.92
2024-02-24T13:22:47.528Z,98121.33
2024-02-24T13:25:16.764Z,98123.48
2024-02-24T13:27:47.272Z,98122.88
2024-02-24T13:30:16.446Z,98124.63
2024-02-24T13:32:45.408Z,98122.98
2024-02-24T13:35:16.186Z,98130.93
2024-02-24T13:37:45.407Z,98135.49
2024-02-24T13:40:14.577Z,98136.52
2024-02-24T13:42:43.195Z,98141.27
2024-02-24T13:45:11.897Z,98140.55
2024-02-24T13:47:40.503Z,98129.34
2024-02-24T13:50:11.568Z,98139.67
2024-02-24T13:52:40.135Z,98141.76
2024-02-24T13:55:09.765Z,98147.36
2024-02-24T13:57:38.418Z,98160.14
2024-02-24T14:00:11.704Z,98167.13
2024-02-24T14:02:40.525Z,98160.68
2024-02-24T14:05:09.597Z,98171.70
2024-02-24T14:07:38.290Z,98165.73
2024-02-24T14:10:08.109Z,98164.29
2024-02-24T14:12:37.012Z,98163.89
2024-02-24T14:15:08.068Z,98161.12
2024-02-24T14:17:36.883Z,98161.13
2024-02-24T14:20:15.643Z,98173.75
2024-02-24T14:22:51.538Z,98167.27
2024-02-24T14:25:20.488Z,98173.42
2024-02-24T14:27:49.099Z,98170.24
2024-02-24T14:30:17.697Z,98176.05
2024-02-24T14:32:46.963Z,98173.39
2024-02-24T14:35:21.354Z,98174.98
2024-02-24T14:37:50.233Z,98168.85
2024-02-24T14:40:20.032Z,98171.49
2024-02-24T14:42:49.667Z,98172.39
2024-02-24T14:45:18.408Z,98174.70
2024-02-24T14:47:47.186Z,98181.17
2024-02-24T14:50:16.059Z,98178.73
2024-02-24T14:52:45.198Z,98174.00
2024-02-24T14:55:13.154Z,98174.53
2024-02-24T14:57:41.836Z,98181.90
2024-02-24T15:00:13.398Z,98183.33
2024-02-24T15:02:52.252Z,98193.30
2024-02-24T15:05:30.165Z,98192.77
2024-02-24T15:07:58.968Z,98195.73
2024-02-24T15:10:27.658Z,98197.85
2024-02-24T15:12:56.522Z,98201.01
2024-02-24T15:15:25.299Z,98206.95
2024-02-24T15:17:55.213Z,98207.81
2024-02-24T15:20:24.703Z,98215.52
2024-02-24T15:22:53.394Z,98212.54
2024-02-24T15:25:22.052Z,98218.13
2024-02-24T15:27:50.862Z,98207.56
2024-02-24T15:30:22.117Z,98210.48
2024-02-24T15:32:57.367Z,98211.33
2024-02-24T15:35:26.957Z,98204.39
2024-02-24T15:37:56.032Z,98204.13
2024-02-24T15:40:24.736Z,98201.67
2024-02-24T15:42:53.416Z,98198.74
2024-02-24T15:45:23.571Z,98197.02
2024-02-24T15:47:52.776Z,98198.16
2024-02-24T15:50:22.068Z,98206.61
2024-02-24T15:52:51.218Z,98203.69
2024-02-24T15:55:20.083Z,98207.74
2024-02-24T15:57:49.085Z,98209.70
2024-02-24T16:00:18.451Z,98211.46
2024-02-24T16:02:47.109Z,98213.23
2024-02-24T16:05:19.062Z,98216.73
2024-02-24T16:07:47.919Z,98219.38
2024-02-24T16:10:17.533Z,98222.01
2024-02-24T16:12:48.222Z,98226.02
2024-02-24T16:15:17.356Z,98229.17
2024-02-24T16:17:45.979Z,98231.97
2024-02-24T16:20:16.890Z,98235.13
2024-02-24T16:22:45.992Z,98240.38
2024-02-24T16:25:15.999Z,98245.09
2024-02-24T16:27:45.100Z,98245.61
2024-02-24T16:30:14.179Z,98243.99
2024-02-24T16:32:43.919Z,98250.64
2024-02-24T16:35:12.987Z,98245.02
2024-02-24T16:37:41.799Z,98251.50
2024-02-24T16:40:11.883Z,98254.27
2024-02-24T16:42:40.937Z,98250.59
2024-02-24T16:45:11.708Z,98263.50
2024-02-24T16:47:40.565Z,98268.38
2024-02-24T16:50:11.438Z,98272.55
2024-02-24T16:52:40.124Z,98269.53
2024-02-24T16:55:10.585Z,98270.73
2024-02-24T16:57:40.047Z,98276.36
2024-02-24T17:00:11.700Z,98280.68
2024-02-24T17:02:41.370Z,98282.77
2024-02-24T17:05:12.757Z,98282.20
2024-02-24T17:07:41.901Z,98285.16
2024-02-24T17:10:12.975Z,98292.81
2024-02-24T17:12:41.663Z,98294.21
2024-02-24T17:15:12.126Z,98294.30
2024-02-24T17:17:41.022Z,98300.79
2024-02-24T17:20:11.600Z,98303.87
2024-02-24T17:22:40.924Z,98306.98
2024-02-24T17:25:10.387Z,98308.49
2024-02-24T17:27:40.143Z,98311.13
2024-02-24T17:30:13.651Z,98316.62
2024-02-24T17:32:42.372Z,98317.55
2024-02-24T17:35:12.155Z,98326.77
2024-02-24T17:37:40.699Z,98327.39
2024-02-24T17:40:13.201Z,98341.97
2024-02-24T17:42:42.510Z,98359.67
2024-02-24T17:45:12.002Z,98372.55
2024-02-24T17:47:40.713Z,98389.17
2024-02-24T17:50:11.109Z,98386.52
2024-02-24T17:52:39.870Z,98381.80
2024-02-24T17:55:13.063Z,98376.96
2024-02-24T17:57:42.431Z,98370.04
2024-02-24T18:00:13.981Z,98369.94
2024-02-24T18:02:42.565Z,98368.77
2024-02-24T18:05:12.848Z,98366.70
2024-02-24T18:07:41.561Z,98369.50
2024-02-24T18:10:12.719Z,98373.77
2024-02-24T18:12:41.415Z,98375.54
2024-02-24T18:15:11.974Z,98378.13
2024-02-24T18:17:41.610Z,98373.19
2024-02-24T18:20:12.713Z,98376.17
2024-02-24T18:22:44.865Z,98376.59
2024-02-24T18:25:14.074Z,98377.47
2024-02-24T18:27:42.564Z,98382.23
2024-02-24T18:30:11.701Z,98382.22
2024-02-24T18:32:41.026Z,98383.20
2024-02-24T18:35:11.147Z,98387.22
2024-02-24T18:37:41.579Z,98388.80
2024-02-24T18:40:13.745Z,98391.05
2024-02-24T18:42:42.332Z,98395.53
2024-02-24T18:45:12.656Z,98397.11
2024-02-24T18:47:41.169Z,98401.58
2024-02-24T18:50:11.583Z,98403.65
2024-02-24T18:52:40.308Z,98406.58
2024-02-24T18:55:10.686Z,98407.42
2024-02-24T18:57:39.255Z,98409.64
2024-02-24T19:00:10.084Z,98414.92
2024-02-24T19:02:42.489Z,98410.52
2024-02-24T19:05:11.895Z,98406.98
2024-02-24T19:07:43.387Z,98409.17
2024-02-24T19:10:13.304Z,98408.73
2024-02-24T19:12:42.991Z,98408.49
2024-02-24T19:15:12.051Z,98410.05
2024-02-24T19:17:40.966Z,98415.27
2024-02-24T19:20:11.372Z,98414.48
2024-02-24T19:22:39.983Z,98417.88
2024-02-24T19:25:11.030Z,98416.55
2024-02-24T19:27:39.523Z,98420.12
2024-02-24T19:30:10.513Z,98424.30
2024-02-24T19:32:39.343Z,98423.21
2024-02-24T19:35:10.175Z,98429.05
2024-02-24T19:37:38.710Z,98428.83
2024-02-24T19:40:10.182Z,98428.08
2024-02-24T19:42:38.692Z,98430.48
2024-02-24T19:45:09.395Z,98431.64
2024-02-24T19:47:40.231Z,98432.14
2024-02-24T19:50:10.413Z,98430.85
2024-02-24T19:52:38.908Z,98431.68
2024-02-24T19:55:09.390Z,98428.25
2024-02-24T19:57:37.829Z,98429.75
2024-02-24T20:00:09.311Z,98425.29
2024-02-24T20:02:38.037Z,98426.16
2024-02-24T20:05:11.768Z,98428.24
2024-02-24T20:07:40.709Z,98430.63
2024-02-24T20:10:10.157Z,98437.86
2024-02-24T20:12:38.887Z,98437.61
2024-02-24T20:15:09.813Z,98442.15
2024-02-24T20:17:38.631Z,98442.73
2024-02-24T20:20:11.576Z,98445.55
2024-02-24T20:22:40.093Z,98442.48
2024-02-24T20:25:09.943Z,98446.23
2024-02-24T20:27:38.326Z,98449.98
2024-02-24T20:30:09.479Z,98448.57
2024-02-24T20:32:38.132Z,98450.41
2024-02-24T20:35:09.456Z,98452.30
2024-02-24T20:37:38.832Z,98453.84
2024-02-24T20:40:10.634Z,98454.36
2024-02-24T20:42:39.084Z,98456.63
2024-02-24T20:45:10.082Z,98456.08
2024-02-24T20:47:38.733Z,98457.02
2024-02-24T20:50:09.282Z,98458.97
2024-02-24T20:52:37.953Z,98461.14
2024-02-24T20:55:08.577Z,98467.61
2024-02-24T20:57:37.936Z,98466.85
2024-02-24T21:00:09.974Z,98470.30
2024-02-24T21:02:40.953Z,98465.93
2024-02-24T21:05:10.384Z,98460.65
2024-02-24T21:07:38.248Z,98465.64
2024-02-24T21:10:06.917Z,98463.69
2024-02-24T21:12:35.414Z,98467.71
2024-02-24T21:15:06.318Z,98465.91
2024-02-24T21:17:35.210Z,98467.11
2024-02-24T21:20:04.423Z,98467.48
2024-02-24T21:22:32.549Z,98468.75
2024-02-24T21:25:01.305Z,98467.14
2024-02-24T21:27:31.138Z,98464.98
2024-02-24T21:29:59.791Z,98461.80
2024-02-24T21:32:28.146Z,98460.89
2024-02-24T21:34:56.919Z,98458.56
2024-02-24T21:37:25.540Z,98459.55
2024-02-24T21:39:54.508Z,98463.38
2024-02-24T21:42:23.208Z,98460.00
2024-02-24T21:44:52.002Z,98457.86
2024-02-24T21:47:20.582Z,98459.46
2024-02-24T21:49:49.173Z,98459.89
2024-02-24T21:52:18.129Z,98455.61
2024-02-24T21:54:46.977Z,98452.85
2024-02-24T21:57:15.618Z,98453.38
2024-02-24T21:59:44.354Z,98453.71
2024-02-24T22:02:13.943Z,98455.23
2024-02-24T22:04:42.632Z,98458.98
2024-02-24T22:07:11.227Z,98457.25
2024-02-24T22:09:40.424Z,98459.86
2024-02-24T22:12:09.447Z,98462.21
2024-02-24T22:14:38.327Z,98463.59
2024-02-24T22:17:08.318Z,98457.92
2024-02-24T22:19:38.651Z,98456.92
2024-02-24T22:22:08.068Z,98457.87
2024-02-24T22:24:35.635Z,98455.14
2024-02-24T22:27:05.300Z,98449.61
2024-02-24T22:29:34.162Z,98447.58
2024-02-24T22:32:03.450Z,98449.42
2024-02-24T22:34:32.100Z,98458.20
2024-02-24T22:37:02.774Z,98459.27
2024-02-24T22:39:31.482Z,98462.52
2024-02-24T22:42:00.397Z,98459.77
2024-02-24T22:44:31.704Z,98455.27
2024-02-24T22:47:00.409Z,98457.34
2024-02-24T22:49:29.100Z,98461.33
2024-02-24T22:51:57.809Z,98459.23
2024-02-24T22:54:27.653Z,98453.34
2024-02-24T22:56:56.208Z,98454.87
2024-02-24T22:59:25.049Z,98454.21
2024-02-24T23:01:53.654Z,98444.67
2024-02-24T23:04:22.240Z,98443.67
2024-02-24T23:06:51.747Z,98446.02
2024-02-24T23:09:21.889Z,98449.33
2024-02-24T23:11:51.084Z,98447.51
2024-02-24T23:14:20.032Z,98445.59
2024-02-24T23:16:48.727Z,98442.54
2024-02-24T23:19:19.385Z,98442.23
2024-02-24T23:21:47.925Z,98443.72
2024-02-24T23:24:16.630Z,98443.67
2024-02-24T23:26:45.364Z,98441.69
2024-02-24T23:29:14.561Z,98439.68
2024-02-24T23:31:43.086Z,98436.75
2024-02-24T23:34:11.814Z,98436.90
2024-02-24T23:36:40.895Z,98439.64
2024-02-24T23:39:09.492Z,98439.52
2024-02-24T23:41:38.519Z,98439.82
2024-02-24T23:44:07.307Z,98439.59
2024-02-24T23:46:36.337Z,98440.61
2024-02-24T23:49:06.268Z,98439.91
2024-02-24T23:51:36.871Z,98436.33
2024-02-24T23:54:05.808Z,98438.39
2024-02-24T23:56:35.225Z,98433.45
2024-02-24T23:59:04.281Z,98436.02
